MOL Supremacy — A8IT6 — position and weather

sailwx.info

Track history (hours):
 
Tides and Currents Weather Stations Pressure Air Temp Water Temp Dewpoint Dewpoint Depression Visibility Wind Speed Wind Dir Waves Ship Positions

MOL Supremacy

Last reported at 2017-Oct-17 21:59 UTC. Time now 2017-Oct-17 22:27 UTC.
Position N 05°35' E 000°00'.

Length 210 m; beam 30.1 m; draft 11.5 m.

Type: Cargo ship. MMSI: 636026896.

Date/timePositionNaut miles runAvg speedWind from/ knotsBaromVisibWave heightAir tempDewpointWater temp
2017-Oct-17 21:59N 05°35' E 000°00'0 0.0
2017-Oct-17 21:29N 05°35' E 000°00'0 0.0
2017-Oct-17 20:59N 05°35' E 000°00'0 0.0
2017-Oct-17 20:29N 05°35' E 000°00'0 0.0
2017-Oct-17 19:59N 05°35' E 000°00'0 0.0
2017-Oct-17 19:29N 05°35' E 000°00'0 0.0
2017-Oct-17 18:59N 05°35' E 000°00'0 0.0
2017-Oct-17 18:29N 05°35' E 000°00'0 0.0
2017-Oct-17 17:59N 05°35' E 000°00'0 0.0
2017-Oct-17 17:29N 05°35' E 000°00'0 0.0
2017-Oct-17 16:59N 05°35' E 000°00'0 0.0
2017-Oct-17 16:29N 05°35' E 000°00'0 0.0
2017-Oct-17 15:59N 05°35' E 000°00'0 0.0
2017-Oct-17 15:28N 05°35' E 000°00'0 0.0
2017-Oct-17 14:58N 05°35' E 000°00'0 0.0
2017-Oct-17 14:29N 05°35' E 000°00'0 0.0
2017-Oct-17 13:59N 05°35' E 000°00'0 0.0
2017-Oct-17 13:28N 05°35' E 000°00'0 0.0
2017-Oct-17 12:59N 05°35' E 000°00'0 0.0
2017-Oct-17 12:29N 05°35' E 000°00'0 0.0
2017-Oct-17 11:58N 05°35' E 000°00'0 0.0
2017-Oct-17 11:29N 05°35' E 000°00'0 0.0
2017-Oct-17 10:59N 05°35' E 000°00'0 0.0
2017-Oct-17 10:29N 05°35' E 000°00'0 0.0
2017-Oct-17 09:59N 05°35' E 000°00'0 0.0
2017-Oct-17 09:29N 05°35' E 000°00'0 0.0
2017-Oct-17 08:59N 05°35' E 000°00'0 0.0
2017-Oct-17 08:28N 05°35' E 000°00'0 0.0
2017-Oct-17 07:59N 05°35' E 000°00'0 0.0
2017-Oct-17 07:29N 05°35' E 000°00'0 0.0
2017-Oct-17 06:58N 05°35' E 000°00'0 0.0
2017-Oct-17 06:28N 05°35' E 000°00'0 0.0
2017-Oct-17 05:59N 05°35' E 000°00'0 0.0
2017-Oct-17 05:29N 05°35' E 000°00'0 0.0
2017-Oct-17 04:59N 05°35' E 000°00'0 0.0
2017-Oct-17 04:29N 05°35' E 000°00'0 0.0
2017-Oct-17 03:58N 05°35' E 000°00'0 0.0
2017-Oct-17 03:13N 05°35' E 000°00'0 0.0
2017-Oct-17 02:59N 05°35' E 000°00'0 0.0
2017-Oct-17 02:29N 05°35' E 000°00'0 0.0
2017-Oct-17 01:58N 05°35' E 000°00'0 0.0
2017-Oct-17 01:29N 05°35' E 000°00'0 0.0
2017-Oct-17 00:59N 05°35' E 000°00'0 0.0
2017-Oct-17 00:29N 05°35' E 000°00'0 0.0
2017-Oct-16 23:59N 05°35' E 000°00'0 0.0
2017-Oct-16 23:29N 05°35' E 000°00'0 0.0
2017-Oct-16 22:59N 05°35' E 000°00'0 0.1
2017-Oct-16 22:29N 05°35' E 000°00'0 0.0
2017-Oct-16 21:59N 05°35' E 000°00'0 0.0
2017-Oct-16 21:29N 05°35' E 000°00'0 0.0
2017-Oct-16 20:59N 05°35' E 000°00'0 0.0
2017-Oct-16 20:28N 05°35' E 000°00'0 0.0
2017-Oct-16 19:58N 05°35' E 000°00'0 0.0
2017-Oct-16 19:28N 05°35' E 000°00'0 0.0
2017-Oct-16 18:59N 05°35' E 000°00'0 0.0
2017-Oct-16 18:29N 05°35' E 000°00'0 0.0
2017-Oct-16 17:59N 05°35' E 000°00'0 0.0
2017-Oct-16 17:29N 05°35' E 000°00'0 0.3
2017-Oct-16 17:00N 05°35' E 000°00'3 5.9
2017-Oct-16 16:31N 05°32' W 000°01'612.5
2017-Oct-16 16:01N 05°26' W 000°03'612.9
2017-Oct-16 15:31N 05°21' W 000°06'612.8
2017-Oct-16 15:01N 05°16' W 000°10'6 5.6
2017-Oct-16 14:01N 05°12' W 000°14'1 2.2
2017-Oct-16 13:30N 05°12' W 000°15'1 2.1
2017-Oct-16 13:01N 05°11' W 000°16'1 2.1
2017-Oct-16 12:31N 05°11' W 000°17'1 2.1
2017-Oct-16 12:01N 05°11' W 000°18'1 2.0
2017-Oct-16 11:30N 05°10' W 000°19'4 8.5
2017-Oct-16 11:00N 05°06' W 000°18'5 7.3 220 / 101015.0 5.4 30.025.8
2017-Oct-16 10:21N 05°10' W 000°21'3 8.7
2017-Oct-16 09:59N 05°12' W 000°18'917.8
2017-Oct-16 09:28N 05°18' W 000°11'919.2
2017-Oct-16 08:59N 05°25' W 000°05'817.7
2017-Oct-16 08:30N 05°32' W 000°01'3 5.0
2017-Oct-16 07:56N 05°35' E 000°00'0 0.0
2017-Oct-16 07:26N 05°35' E 000°00'0 0.0
2017-Oct-16 06:59N 05°35' E 000°00'0 0.0
2017-Oct-16 06:29N 05°35' E 000°00'0 0.0
2017-Oct-16 05:59N 05°35' E 000°00'0 0.0
2017-Oct-16 05:26N 05°35' E 000°00'0 0.0
2017-Oct-16 04:59N 05°35' E 000°00'0 0.0
2017-Oct-16 04:29N 05°35' E 000°00'0 0.0
2017-Oct-16 03:59N 05°35' E 000°00'0 0.0
2017-Oct-16 03:29N 05°35' E 000°00'0 0.0
2017-Oct-16 02:59N 05°35' E 000°00'0 0.0
2017-Oct-16 02:29N 05°35' E 000°00'0 0.0
2017-Oct-16 01:59N 05°35' E 000°00'0 0.0
2017-Oct-16 01:29N 05°35' E 000°00'0 0.0
2017-Oct-16 00:59N 05°35' E 000°00'0 0.0
2017-Oct-16 00:29N 05°35' E 000°00'0 0.0
2017-Oct-15 23:59N 05°35' E 000°00'0 0.0
2017-Oct-15 23:29N 05°35' E 000°00'0 0.0
2017-Oct-15 22:59N 05°35' E 000°00'0 0.0
2017-Oct-15 22:29N 05°35' E 000°00'0 0.0
2017-Oct-15 21:59N 05°35' E 000°00'0 0.0
2017-Oct-15 21:29N 05°35' E 000°00'0 0.0
2017-Oct-15 20:59N 05°35' E 000°00'0 0.0
2017-Oct-15 20:29N 05°35' E 000°00'0 0.0
2017-Oct-15 19:59N 05°35' E 000°00'0 0.0
2017-Oct-15 19:29N 05°35' E 000°00'0 0.0
2017-Oct-15 18:59N 05°35' E 000°00'0 0.0
2017-Oct-15 18:29N 05°35' E 000°00'0 0.0
2017-Oct-15 17:59N 05°35' E 000°00'0 0.0
2017-Oct-15 17:29N 05°35' E 000°00'0 0.0
2017-Oct-15 16:59N 05°35' E 000°00'0 0.0
2017-Oct-15 16:29N 05°35' E 000°00'0 0.0
2017-Oct-15 15:59N 05°35' E 000°00'0 0.0
2017-Oct-15 15:29N 05°35' E 000°00'0 0.0
2017-Oct-15 14:59N 05°35' E 000°00'0 0.0
2017-Oct-15 13:59N 05°35' E 000°00'0 0.0
2017-Oct-15 13:29N 05°35' E 000°00'0 0.0
2017-Oct-15 12:59N 05°35' E 000°00'0 0.0
2017-Oct-15 12:29N 05°35' E 000°00'0 0.0
2017-Oct-15 11:59N 05°35' E 000°00'0 0.0
2017-Oct-15 11:29N 05°35' E 000°00'510.0
2017-Oct-15 11:00N 05°30' E 000°00'5474.7 220 / 111015.0 5.4 29.026.2
2017-Oct-15 10:59N 05°35' E 000°00'0 0.0
2017-Oct-15 10:29N 05°35' E 000°00'0 0.0
2017-Oct-15 09:59N 05°35' E 000°00'0 0.0
2017-Oct-15 09:29N 05°35' E 000°00'0 0.0
2017-Oct-15 08:59N 05°35' E 000°00'0 0.0
2017-Oct-15 08:29N 05°35' E 000°00'0 0.0
2017-Oct-15 07:59N 05°35' E 000°00'0 0.0
2017-Oct-15 07:29N 05°35' E 000°00'0 0.0
2017-Oct-15 06:59N 05°35' E 000°00'0 0.0
2017-Oct-15 06:29N 05°35' E 000°00'0 0.0
2017-Oct-15 05:59N 05°35' E 000°00'0 0.0
2017-Oct-15 05:29N 05°35' E 000°00'0 0.0
2017-Oct-15 04:59N 05°35' E 000°00'0 0.0
2017-Oct-15 04:29N 05°35' E 000°00'0 0.0
2017-Oct-15 03:59N 05°35' E 000°00'0 0.0
2017-Oct-15 03:29N 05°35' E 000°00'0 0.0
2017-Oct-15 02:59N 05°35' E 000°00'0 0.0
2017-Oct-15 02:29N 05°35' E 000°00'0 0.0
2017-Oct-15 01:59N 05°35' E 000°00'0 0.0
2017-Oct-15 01:29N 05°35' E 000°00'0 0.0
2017-Oct-15 00:56N 05°35' E 000°00'0 0.0
2017-Oct-15 00:29N 05°35' E 000°00'0 0.0
2017-Oct-14 23:59N 05°35' E 000°00'0 0.0
2017-Oct-14 23:29N 05°35' E 000°00'0 0.1
2017-Oct-14 22:59N 05°35' E 000°00'0 0.1
2017-Oct-14 22:29N 05°35' E 000°00'0 0.0
2017-Oct-14 21:59N 05°35' E 000°00'0 0.0
2017-Oct-14 21:29N 05°35' E 000°00'0 0.0
2017-Oct-14 20:59N 05°35' E 000°00'0 0.0
2017-Oct-14 20:29N 05°35' E 000°00'0 0.0
2017-Oct-14 19:59N 05°35' E 000°00'0 0.0
2017-Oct-14 19:29N 05°35' E 000°00'0 0.0
2017-Oct-14 18:59N 05°35' E 000°00'0 0.0
2017-Oct-14 18:29N 05°35' E 000°00'0 0.0
2017-Oct-14 17:59N 05°35' E 000°00'0 0.0
2017-Oct-14 17:29N 05°35' E 000°00'0 0.0
2017-Oct-14 16:59N 05°35' E 000°00'0 0.0
2017-Oct-14 16:29N 05°35' E 000°00'0 0.0
2017-Oct-14 15:59N 05°35' E 000°00'0 0.0
2017-Oct-14 15:29N 05°35' E 000°00'0 0.0
2017-Oct-14 14:59N 05°35' E 000°00'0 0.0
2017-Oct-14 14:29N 05°35' E 000°00'0 0.0
2017-Oct-14 13:59N 05°35' E 000°00'0 0.0
2017-Oct-14 13:29N 05°35' E 000°00'0 0.0
2017-Oct-14 12:59N 05°35' E 000°00'0 0.0
2017-Oct-14 12:29N 05°35' E 000°00'0 0.0
2017-Oct-14 11:59N 05°35' E 000°00'0 0.0
2017-Oct-14 11:29N 05°35' E 000°00'0 0.0
2017-Oct-14 10:59N 05°35' E 000°00'0 0.0
2017-Oct-14 10:29N 05°35' E 000°00'0 0.0
2017-Oct-14 09:59N 05°35' E 000°00'0 0.0
2017-Oct-14 09:29N 05°35' E 000°00'0 0.0
2017-Oct-14 08:59N 05°35' E 000°00'0 0.1
2017-Oct-14 08:29N 05°35' E 000°00'1 2.1
2017-Oct-14 08:00N 05°35' E 000°01'4 7.7
2017-Oct-14 07:30N 05°35' E 000°05'4 8.3
2017-Oct-14 07:00N 05°34' E 000°09'5 9.3
2017-Oct-14 06:30N 05°33' E 000°14'5 9.3
2017-Oct-14 06:00N 05°31' E 000°18'4 9.0
2017-Oct-14 05:30N 05°30' E 000°22'714.8
2017-Oct-14 05:00N 05°30' E 000°30'817.0
2017-Oct-14 04:30N 05°30' E 000°38'816.8
2017-Oct-14 04:00N 05°30' E 000°47'  
2017-Oct-10 10:00N 04°12' E 001°54'25010.9 200 / 111013.0 5.4 29.024.8
2017-Oct-09 11:00N 03°24' W 002°12'5012.6 180 / 121015.010.8 31.025.4
2017-Oct-09 07:00N 03°31' W 003°02'712.1
2017-Oct-09 06:26N 03°32' W 003°09'512.2
2017-Oct-09 05:59N 03°32' W 003°14'812.3
2017-Oct-09 05:18N 03°33' W 003°23'512.3
2017-Oct-09 04:55N 03°33' W 003°27'812.5
2017-Oct-09 04:16N 03°34' W 003°35'24712.2
2017-Oct-08 08:00N 03°54' W 007°42'   180 / 121014.0 29.026.2
Track history (hours):
 
Tides and Currents Weather Stations Pressure Air Temp Water Temp Dewpoint Dewpoint Depression Visibility Wind Speed Wind Dir Waves Ship Positions

MOL Supremacy

Last reported at 2017-Oct-17 21:59 UTC. Time now 2017-Oct-17 22:27 UTC.
Position N 05°35' E 000°00'.

Length 210 m; beam 30.1 m; draft 11.5 m.

Type: Cargo ship. MMSI: 636026896.

Date/timePositionNaut miles runAvg speedWind from/ knotsBaromVisibWave heightAir tempDewpointWater temp
2017-Oct-17 21:59N 05°35' E 000°00'0 0.0
2017-Oct-17 21:29N 05°35' E 000°00'0 0.0
2017-Oct-17 20:59N 05°35' E 000°00'0 0.0
2017-Oct-17 20:29N 05°35' E 000°00'0 0.0
2017-Oct-17 19:59N 05°35' E 000°00'0 0.0
2017-Oct-17 19:29N 05°35' E 000°00'0 0.0
2017-Oct-17 18:59N 05°35' E 000°00'0 0.0
2017-Oct-17 18:29N 05°35' E 000°00'0 0.0
2017-Oct-17 17:59N 05°35' E 000°00'0 0.0
2017-Oct-17 17:29N 05°35' E 000°00'0 0.0
2017-Oct-17 16:59N 05°35' E 000°00'0 0.0
2017-Oct-17 16:29N 05°35' E 000°00'0 0.0
2017-Oct-17 15:59N 05°35' E 000°00'0 0.0
2017-Oct-17 15:28N 05°35' E 000°00'0 0.0
2017-Oct-17 14:58N 05°35' E 000°00'0 0.0
2017-Oct-17 14:29N 05°35' E 000°00'0 0.0
2017-Oct-17 13:59N 05°35' E 000°00'0 0.0
2017-Oct-17 13:28N 05°35' E 000°00'0 0.0
2017-Oct-17 12:59N 05°35' E 000°00'0 0.0
2017-Oct-17 12:29N 05°35' E 000°00'0 0.0
2017-Oct-17 11:58N 05°35' E 000°00'0 0.0
2017-Oct-17 11:29N 05°35' E 000°00'0 0.0
2017-Oct-17 10:59N 05°35' E 000°00'0 0.0
2017-Oct-17 10:29N 05°35' E 000°00'0 0.0
2017-Oct-17 09:59N 05°35' E 000°00'0 0.0
2017-Oct-17 09:29N 05°35' E 000°00'0 0.0
2017-Oct-17 08:59N 05°35' E 000°00'0 0.0
2017-Oct-17 08:28N 05°35' E 000°00'0 0.0
2017-Oct-17 07:59N 05°35' E 000°00'0 0.0
2017-Oct-17 07:29N 05°35' E 000°00'0 0.0
2017-Oct-17 06:58N 05°35' E 000°00'0 0.0
2017-Oct-17 06:28N 05°35' E 000°00'0 0.0
2017-Oct-17 05:59N 05°35' E 000°00'0 0.0
2017-Oct-17 05:29N 05°35' E 000°00'0 0.0
2017-Oct-17 04:59N 05°35' E 000°00'0 0.0
2017-Oct-17 04:29N 05°35' E 000°00'0 0.0
2017-Oct-17 03:58N 05°35' E 000°00'0 0.0
2017-Oct-17 03:13N 05°35' E 000°00'0 0.0
2017-Oct-17 02:59N 05°35' E 000°00'0 0.0
2017-Oct-17 02:29N 05°35' E 000°00'0 0.0
2017-Oct-17 01:58N 05°35' E 000°00'0 0.0
2017-Oct-17 01:29N 05°35' E 000°00'0 0.0
2017-Oct-17 00:59N 05°35' E 000°00'0 0.0
2017-Oct-17 00:29N 05°35' E 000°00'0 0.0
2017-Oct-16 23:59N 05°35' E 000°00'0 0.0
2017-Oct-16 23:29N 05°35' E 000°00'0 0.0
2017-Oct-16 22:59N 05°35' E 000°00'0 0.1
2017-Oct-16 22:29N 05°35' E 000°00'0 0.0
2017-Oct-16 21:59N 05°35' E 000°00'0 0.0
2017-Oct-16 21:29N 05°35' E 000°00'0 0.0
2017-Oct-16 20:59N 05°35' E 000°00'0 0.0
2017-Oct-16 20:28N 05°35' E 000°00'0 0.0
2017-Oct-16 19:58N 05°35' E 000°00'0 0.0
2017-Oct-16 19:28N 05°35' E 000°00'0 0.0
2017-Oct-16 18:59N 05°35' E 000°00'0 0.0
2017-Oct-16 18:29N 05°35' E 000°00'0 0.0
2017-Oct-16 17:59N 05°35' E 000°00'0 0.0
2017-Oct-16 17:29N 05°35' E 000°00'0 0.3
2017-Oct-16 17:00N 05°35' E 000°00'3 5.9
2017-Oct-16 16:31N 05°32' W 000°01'612.5
2017-Oct-16 16:01N 05°26' W 000°03'612.9
2017-Oct-16 15:31N 05°21' W 000°06'612.8
2017-Oct-16 15:01N 05°16' W 000°10'6 5.6
2017-Oct-16 14:01N 05°12' W 000°14'1 2.2
2017-Oct-16 13:30N 05°12' W 000°15'1 2.1
2017-Oct-16 13:01N 05°11' W 000°16'1 2.1
2017-Oct-16 12:31N 05°11' W 000°17'1 2.1
2017-Oct-16 12:01N 05°11' W 000°18'1 2.0
2017-Oct-16 11:30N 05°10' W 000°19'4 8.5
2017-Oct-16 11:00N 05°06' W 000°18'5 7.3 220 / 101015.0 5.4 30.025.8
2017-Oct-16 10:21N 05°10' W 000°21'3 8.7
2017-Oct-16 09:59N 05°12' W 000°18'917.8
2017-Oct-16 09:28N 05°18' W 000°11'919.2
2017-Oct-16 08:59N 05°25' W 000°05'817.7
2017-Oct-16 08:30N 05°32' W 000°01'3 5.0
2017-Oct-16 07:56N 05°35' E 000°00'0 0.0
2017-Oct-16 07:26N 05°35' E 000°00'0 0.0
2017-Oct-16 06:59N 05°35' E 000°00'0 0.0
2017-Oct-16 06:29N 05°35' E 000°00'0 0.0
2017-Oct-16 05:59N 05°35' E 000°00'0 0.0
2017-Oct-16 05:26N 05°35' E 000°00'0 0.0
2017-Oct-16 04:59N 05°35' E 000°00'0 0.0
2017-Oct-16 04:29N 05°35' E 000°00'0 0.0
2017-Oct-16 03:59N 05°35' E 000°00'0 0.0
2017-Oct-16 03:29N 05°35' E 000°00'0 0.0
2017-Oct-16 02:59N 05°35' E 000°00'0 0.0
2017-Oct-16 02:29N 05°35' E 000°00'0 0.0
2017-Oct-16 01:59N 05°35' E 000°00'0 0.0
2017-Oct-16 01:29N 05°35' E 000°00'0 0.0
2017-Oct-16 00:59N 05°35' E 000°00'0 0.0
2017-Oct-16 00:29N 05°35' E 000°00'0 0.0
2017-Oct-15 23:59N 05°35' E 000°00'0 0.0
2017-Oct-15 23:29N 05°35' E 000°00'0 0.0
2017-Oct-15 22:59N 05°35' E 000°00'0 0.0
2017-Oct-15 22:29N 05°35' E 000°00'0 0.0
2017-Oct-15 21:59N 05°35' E 000°00'0 0.0
2017-Oct-15 21:29N 05°35' E 000°00'0 0.0
2017-Oct-15 20:59N 05°35' E 000°00'0 0.0
2017-Oct-15 20:29N 05°35' E 000°00'0 0.0
2017-Oct-15 19:59N 05°35' E 000°00'0 0.0
2017-Oct-15 19:29N 05°35' E 000°00'0 0.0
2017-Oct-15 18:59N 05°35' E 000°00'0 0.0
2017-Oct-15 18:29N 05°35' E 000°00'0 0.0
2017-Oct-15 17:59N 05°35' E 000°00'0 0.0
2017-Oct-15 17:29N 05°35' E 000°00'0 0.0
2017-Oct-15 16:59N 05°35' E 000°00'0 0.0
2017-Oct-15 16:29N 05°35' E 000°00'0 0.0
2017-Oct-15 15:59N 05°35' E 000°00'0 0.0
2017-Oct-15 15:29N 05°35' E 000°00'0 0.0
2017-Oct-15 14:59N 05°35' E 000°00'0 0.0
2017-Oct-15 13:59N 05°35' E 000°00'0 0.0
2017-Oct-15 13:29N 05°35' E 000°00'0 0.0
2017-Oct-15 12:59N 05°35' E 000°00'0 0.0
2017-Oct-15 12:29N 05°35' E 000°00'0 0.0
2017-Oct-15 11:59N 05°35' E 000°00'0 0.0
2017-Oct-15 11:29N 05°35' E 000°00'510.0
2017-Oct-15 11:00N 05°30' E 000°00'5474.7 220 / 111015.0 5.4 29.026.2
2017-Oct-15 10:59N 05°35' E 000°00'0 0.0
2017-Oct-15 10:29N 05°35' E 000°00'0 0.0
2017-Oct-15 09:59N 05°35' E 000°00'0 0.0
2017-Oct-15 09:29N 05°35' E 000°00'0 0.0
2017-Oct-15 08:59N 05°35' E 000°00'0 0.0
2017-Oct-15 08:29N 05°35' E 000°00'0 0.0
2017-Oct-15 07:59N 05°35' E 000°00'0 0.0
2017-Oct-15 07:29N 05°35' E 000°00'0 0.0
2017-Oct-15 06:59N 05°35' E 000°00'0 0.0
2017-Oct-15 06:29N 05°35' E 000°00'0 0.0
2017-Oct-15 05:59N 05°35' E 000°00'0 0.0
2017-Oct-15 05:29N 05°35' E 000°00'0 0.0
2017-Oct-15 04:59N 05°35' E 000°00'0 0.0
2017-Oct-15 04:29N 05°35' E 000°00'0 0.0
2017-Oct-15 03:59N 05°35' E 000°00'0 0.0
2017-Oct-15 03:29N 05°35' E 000°00'0 0.0
2017-Oct-15 02:59N 05°35' E 000°00'0 0.0
2017-Oct-15 02:29N 05°35' E 000°00'0 0.0
2017-Oct-15 01:59N 05°35' E 000°00'0 0.0
2017-Oct-15 01:29N 05°35' E 000°00'0 0.0
2017-Oct-15 00:56N 05°35' E 000°00'0 0.0
2017-Oct-15 00:29N 05°35' E 000°00'0 0.0
2017-Oct-14 23:59N 05°35' E 000°00'0 0.0
2017-Oct-14 23:29N 05°35' E 000°00'0 0.1
2017-Oct-14 22:59N 05°35' E 000°00'0 0.1
2017-Oct-14 22:29N 05°35' E 000°00'0 0.0
2017-Oct-14 21:59N 05°35' E 000°00'0 0.0
2017-Oct-14 21:29N 05°35' E 000°00'0 0.0
2017-Oct-14 20:59N 05°35' E 000°00'0 0.0
2017-Oct-14 20:29N 05°35' E 000°00'0 0.0
2017-Oct-14 19:59N 05°35' E 000°00'0 0.0
2017-Oct-14 19:29N 05°35' E 000°00'0 0.0
2017-Oct-14 18:59N 05°35' E 000°00'0 0.0
2017-Oct-14 18:29N 05°35' E 000°00'0 0.0
2017-Oct-14 17:59N 05°35' E 000°00'0 0.0
2017-Oct-14 17:29N 05°35' E 000°00'0 0.0
2017-Oct-14 16:59N 05°35' E 000°00'0 0.0
2017-Oct-14 16:29N 05°35' E 000°00'0 0.0
2017-Oct-14 15:59N 05°35' E 000°00'0 0.0
2017-Oct-14 15:29N 05°35' E 000°00'0 0.0
2017-Oct-14 14:59N 05°35' E 000°00'0 0.0
2017-Oct-14 14:29N 05°35' E 000°00'0 0.0
2017-Oct-14 13:59N 05°35' E 000°00'0 0.0
2017-Oct-14 13:29N 05°35' E 000°00'0 0.0
2017-Oct-14 12:59N 05°35' E 000°00'0 0.0
2017-Oct-14 12:29N 05°35' E 000°00'0 0.0
2017-Oct-14 11:59N 05°35' E 000°00'0 0.0
2017-Oct-14 11:29N 05°35' E 000°00'0 0.0
2017-Oct-14 10:59N 05°35' E 000°00'0 0.0
2017-Oct-14 10:29N 05°35' E 000°00'0 0.0
2017-Oct-14 09:59N 05°35' E 000°00'0 0.0
2017-Oct-14 09:29N 05°35' E 000°00'0 0.0
2017-Oct-14 08:59N 05°35' E 000°00'0 0.1
2017-Oct-14 08:29N 05°35' E 000°00'1 2.1
2017-Oct-14 08:00N 05°35' E 000°01'4 7.7
2017-Oct-14 07:30N 05°35' E 000°05'4 8.3
2017-Oct-14 07:00N 05°34' E 000°09'5 9.3
2017-Oct-14 06:30N 05°33' E 000°14'5 9.3
2017-Oct-14 06:00N 05°31' E 000°18'4 9.0
2017-Oct-14 05:30N 05°30' E 000°22'714.8
2017-Oct-14 05:00N 05°30' E 000°30'817.0
2017-Oct-14 04:30N 05°30' E 000°38'816.8
2017-Oct-14 04:00N 05°30' E 000°47'  
2017-Oct-10 10:00N 04°12' E 001°54'25010.9 200 / 111013.0 5.4 29.024.8
2017-Oct-09 11:00N 03°24' W 002°12'5012.6 180 / 121015.010.8 31.025.4
2017-Oct-09 07:00N 03°31' W 003°02'712.1
2017-Oct-09 06:26N 03°32' W 003°09'512.2
2017-Oct-09 05:59N 03°32' W 003°14'812.3
2017-Oct-09 05:18N 03°33' W 003°23'512.3
2017-Oct-09 04:55N 03°33' W 003°27'812.5
2017-Oct-09 04:16N 03°34' W 003°35'24712.2
2017-Oct-08 08:00N 03°54' W 007°42'   180 / 121014.0 29.026.2

Dump ship's entire track history